sensor_id;sensor_type;location;lat;lon;timestamp;P1;durP1;ratioP1;P2;durP2;ratioP2
9761;SDS011;4920;49.594;11.022;2023-04-03T00:01:34;2.07;;;1.90;;
9761;SDS011;4920;49.594;11.022;2023-04-03T00:04:04;2.40;;;2.10;;
9761;SDS011;4920;49.594;11.022;2023-04-03T00:06:33;4.20;;;2.20;;
9761;SDS011;4920;49.594;11.022;2023-04-03T00:09:02;3.00;;;2.00;;
9761;SDS011;4920;49.594;11.022;2023-04-03T00:11:32;3.13;;;2.30;;
9761;SDS011;4920;49.594;11.022;2023-04-03T00:14:03;2.90;;;2.20;;
9761;SDS011;4920;49.594;11.022;2023-04-03T00:16:31;4.83;;;2.10;;
9761;SDS011;4920;49.594;11.022;2023-04-03T00:19:00;3.53;;;2.10;;
9761;SDS011;4920;49.594;11.022;2023-04-03T00:21:29;3.07;;;2.30;;
9761;SDS011;4920;49.594;11.022;2023-04-03T00:23:58;2.90;;;1.97;;
9761;SDS011;4920;49.594;11.022;2023-04-03T00:26:26;2.60;;;2.17;;
9761;SDS011;4920;49.594;11.022;2023-04-03T00:28:55;3.30;;;2.30;;
9761;SDS011;4920;49.594;11.022;2023-04-03T00:31:25;3.03;;;2.33;;
9761;SDS011;4920;49.594;11.022;2023-04-03T00:33:54;2.57;;;2.37;;
9761;SDS011;4920;49.594;11.022;2023-04-03T00:36:23;3.13;;;2.20;;
9761;SDS011;4920;49.594;11.022;2023-04-03T00:38:52;3.53;;;2.10;;
9761;SDS011;4920;49.594;11.022;2023-04-03T00:41:21;2.77;;;2.50;;
9761;SDS011;4920;49.594;11.022;2023-04-03T00:43:49;3.00;;;2.40;;
9761;SDS011;4920;49.594;11.022;2023-04-03T00:46:19;3.10;;;2.70;;
9761;SDS011;4920;49.594;11.022;2023-04-03T00:48:49;2.97;;;2.23;;
9761;SDS011;4920;49.594;11.022;2023-04-03T00:51:19;2.60;;;2.20;;
9761;SDS011;4920;49.594;11.022;2023-04-03T00:53:53;2.90;;;2.10;;
9761;SDS011;4920;49.594;11.022;2023-04-03T00:56:27;2.87;;;2.43;;
9761;SDS011;4920;49.594;11.022;2023-04-03T00:58:58;3.07;;;2.30;;
9761;SDS011;4920;49.594;11.022;2023-04-03T01:01:29;2.43;;;2.20;;
9761;SDS011;4920;49.594;11.022;2023-04-03T01:04:00;3.20;;;2.20;;
9761;SDS011;4920;49.594;11.022;2023-04-03T01:06:31;2.57;;;2.23;;
9761;SDS011;4920;49.594;11.022;2023-04-03T01:09:06;2.60;;;2.20;;
9761;SDS011;4920;49.594;11.022;2023-04-03T01:11:34;2.70;;;2.33;;
9761;SDS011;4920;49.594;11.022;2023-04-03T01:14:03;2.37;;;1.93;;
9761;SDS011;4920;49.594;11.022;2023-04-03T01:16:33;2.37;;;2.17;;
9761;SDS011;4920;49.594;11.022;2023-04-03T01:19:03;2.60;;;2.10;;
9761;SDS011;4920;49.594;11.022;2023-04-03T01:24:35;2.10;;;1.90;;
9761;SDS011;4920;49.594;11.022;2023-04-03T01:27:09;2.77;;;2.40;;
9761;SDS011;4920;49.594;11.022;2023-04-03T01:29:39;4.07;;;2.63;;
9761;SDS011;4920;49.594;11.022;2023-04-03T01:32:11;2.40;;;2.13;;
9761;SDS011;4920;49.594;11.022;2023-04-03T01:34:41;2.37;;;2.10;;
9761;SDS011;4920;49.594;11.022;2023-04-03T01:37:10;4.07;;;2.30;;
9761;SDS011;4920;49.594;11.022;2023-04-03T01:39:39;2.90;;;2.30;;
9761;SDS011;4920;49.594;11.022;2023-04-03T01:42:08;3.20;;;2.23;;
9761;SDS011;4920;49.594;11.022;2023-04-03T01:44:40;4.03;;;2.30;;
9761;SDS011;4920;49.594;11.022;2023-04-03T01:47:09;4.00;;;2.50;;
9761;SDS011;4920;49.594;11.022;2023-04-03T01:49:41;3.90;;;2.10;;
9761;SDS011;4920;49.594;11.022;2023-04-03T01:52:11;4.37;;;2.50;;
9761;SDS011;4920;49.594;11.022;2023-04-03T01:54:40;3.03;;;2.40;;
9761;SDS011;4920;49.594;11.022;2023-04-03T01:57:09;6.23;;;2.70;;
9761;SDS011;4920;49.594;11.022;2023-04-03T01:59:40;3.93;;;2.23;;
9761;SDS011;4920;49.594;11.022;2023-04-03T02:02:09;3.50;;;2.47;;
9761;SDS011;4920;49.594;11.022;2023-04-03T02:04:40;3.73;;;2.53;;
9761;SDS011;4920;49.594;11.022;2023-04-03T02:07:09;3.27;;;2.30;;
9761;SDS011;4920;49.594;11.022;2023-04-03T02:09:38;2.77;;;2.30;;
9761;SDS011;4920;49.594;11.022;2023-04-03T02:12:08;4.43;;;2.40;;
9761;SDS011;4920;49.594;11.022;2023-04-03T02:14:37;3.70;;;2.30;;
9761;SDS011;4920;49.594;11.022;2023-04-03T02:17:05;3.73;;;2.40;;
9761;SDS011;4920;49.594;11.022;2023-04-03T02:19:35;3.27;;;2.30;;
9761;SDS011;4920;49.594;11.022;2023-04-03T02:22:05;2.70;;;2.10;;
9761;SDS011;4920;49.594;11.022;2023-04-03T02:24:34;3.20;;;2.37;;
9761;SDS011;4920;49.594;11.022;2023-04-03T02:27:05;4.10;;;2.20;;
9761;SDS011;4920;49.594;11.022;2023-04-03T02:29:34;5.50;;;2.70;;
9761;SDS011;4920;49.594;11.022;2023-04-03T02:32:04;5.40;;;2.40;;
9761;SDS011;4920;49.594;11.022;2023-04-03T02:34:34;3.30;;;2.47;;
9761;SDS011;4920;49.594;11.022;2023-04-03T02:37:05;3.47;;;2.30;;
9761;SDS011;4920;49.594;11.022;2023-04-03T02:39:35;5.90;;;2.60;;
9761;SDS011;4920;49.594;11.022;2023-04-03T02:42:03;3.50;;;2.17;;
9761;SDS011;4920;49.594;11.022;2023-04-03T02:44:33;2.70;;;2.23;;
9761;SDS011;4920;49.594;11.022;2023-04-03T02:47:02;3.43;;;2.50;;
9761;SDS011;4920;49.594;11.022;2023-04-03T02:49:32;3.37;;;2.20;;
9761;SDS011;4920;49.594;11.022;2023-04-03T02:52:01;3.83;;;2.40;;
9761;SDS011;4920;49.594;11.022;2023-04-03T02:54:31;4.27;;;2.40;;
9761;SDS011;4920;49.594;11.022;2023-04-03T02:57:03;3.70;;;2.40;;
9761;SDS011;4920;49.594;11.022;2023-04-03T02:59:32;3.97;;;2.63;;
9761;SDS011;4920;49.594;11.022;2023-04-03T03:02:01;4.17;;;2.60;;
9761;SDS011;4920;49.594;11.022;2023-04-03T03:04:29;4.53;;;2.60;;
9761;SDS011;4920;49.594;11.022;2023-04-03T03:06:58;4.43;;;3.03;;
9761;SDS011;4920;49.594;11.022;2023-04-03T03:09:27;3.70;;;2.60;;
9761;SDS011;4920;49.594;11.022;2023-04-03T03:11:59;4.07;;;2.87;;
9761;SDS011;4920;49.594;11.022;2023-04-03T03:14:29;6.33;;;2.80;;
9761;SDS011;4920;49.594;11.022;2023-04-03T03:16:58;3.83;;;2.90;;
9761;SDS011;4920;49.594;11.022;2023-04-03T03:19:26;4.30;;;2.87;;
9761;SDS011;4920;49.594;11.022;2023-04-03T03:21:56;4.00;;;3.00;;
9761;SDS011;4920;49.594;11.022;2023-04-03T03:24:24;4.10;;;3.10;;
9761;SDS011;4920;49.594;11.022;2023-04-03T03:26:53;6.33;;;3.00;;
9761;SDS011;4920;49.594;11.022;2023-04-03T03:29:23;5.07;;;2.93;;
9761;SDS011;4920;49.594;11.022;2023-04-03T03:31:52;5.33;;;2.97;;
9761;SDS011;4920;49.594;11.022;2023-04-03T03:34:21;3.97;;;2.87;;
9761;SDS011;4920;49.594;11.022;2023-04-03T03:36:50;4.60;;;3.33;;
9761;SDS011;4920;49.594;11.022;2023-04-03T03:39:19;6.00;;;3.40;;
9761;SDS011;4920;49.594;11.022;2023-04-03T03:41:48;6.00;;;3.40;;
9761;SDS011;4920;49.594;11.022;2023-04-03T03:44:17;4.63;;;3.10;;
9761;SDS011;4920;49.594;11.022;2023-04-03T03:46:47;5.40;;;3.23;;
9761;SDS011;4920;49.594;11.022;2023-04-03T03:49:17;6.43;;;3.20;;
9761;SDS011;4920;49.594;11.022;2023-04-03T03:51:46;4.67;;;3.17;;
9761;SDS011;4920;49.594;11.022;2023-04-03T03:54:15;6.10;;;3.00;;
9761;SDS011;4920;49.594;11.022;2023-04-03T03:56:44;5.47;;;3.60;;
9761;SDS011;4920;49.594;11.022;2023-04-03T03:59:13;4.73;;;3.37;;
9761;SDS011;4920;49.594;11.022;2023-04-03T04:01:42;5.67;;;3.77;;
9761;SDS011;4920;49.594;11.022;2023-04-03T04:04:13;6.37;;;3.80;;
9761;SDS011;4920;49.594;11.022;2023-04-03T04:06:42;5.10;;;3.63;;
9761;SDS011;4920;49.594;11.022;2023-04-03T04:09:11;5.97;;;3.53;;
9761;SDS011;4920;49.594;11.022;2023-04-03T04:11:40;5.30;;;3.50;;
9761;SDS011;4920;49.594;11.022;2023-04-03T04:14:11;5.70;;;3.47;;
9761;SDS011;4920;49.594;11.022;2023-04-03T04:16:41;5.87;;;3.60;;
9761;SDS011;4920;49.594;11.022;2023-04-03T04:19:18;6.33;;;3.80;;
9761;SDS011;4920;49.594;11.022;2023-04-03T04:21:48;3.87;;;3.20;;
9761;SDS011;4920;49.594;11.022;2023-04-03T04:24:18;6.00;;;3.57;;
9761;SDS011;4920;49.594;11.022;2023-04-03T04:29:43;7.40;;;3.60;;
9761;SDS011;4920;49.594;11.022;2023-04-03T04:32:12;6.40;;;3.80;;
9761;SDS011;4920;49.594;11.022;2023-04-03T04:34:42;8.57;;;3.80;;
9761;SDS011;4920;49.594;11.022;2023-04-03T04:37:19;8.10;;;3.67;;
9761;SDS011;4920;49.594;11.022;2023-04-03T04:39:52;7.77;;;4.00;;
9761;SDS011;4920;49.594;11.022;2023-04-03T04:42:21;6.23;;;3.60;;
9761;SDS011;4920;49.594;11.022;2023-04-03T04:44:50;7.00;;;3.50;;
9761;SDS011;4920;49.594;11.022;2023-04-03T04:47:19;7.40;;;4.03;;
9761;SDS011;4920;49.594;11.022;2023-04-03T04:49:50;7.17;;;4.00;;
9761;SDS011;4920;49.594;11.022;2023-04-03T04:52:19;6.50;;;3.80;;
9761;SDS011;4920;49.594;11.022;2023-04-03T04:54:48;7.33;;;3.67;;
9761;SDS011;4920;49.594;11.022;2023-04-03T04:57:18;6.47;;;3.73;;
9761;SDS011;4920;49.594;11.022;2023-04-03T04:59:46;6.03;;;3.90;;
9761;SDS011;4920;49.594;11.022;2023-04-03T05:02:15;6.37;;;3.97;;
9761;SDS011;4920;49.594;11.022;2023-04-03T05:04:44;9.27;;;3.90;;
9761;SDS011;4920;49.594;11.022;2023-04-03T05:07:20;5.90;;;3.93;;
9761;SDS011;4920;49.594;11.022;2023-04-03T05:09:49;7.60;;;3.97;;
9761;SDS011;4920;49.594;11.022;2023-04-03T05:12:18;7.27;;;3.93;;
9761;SDS011;4920;49.594;11.022;2023-04-03T05:14:52;6.80;;;3.97;;
9761;SDS011;4920;49.594;11.022;2023-04-03T05:17:21;6.13;;;3.60;;
9761;SDS011;4920;49.594;11.022;2023-04-03T05:23:34;4.73;;;3.40;;
9761;SDS011;4920;49.594;11.022;2023-04-03T05:26:03;5.63;;;3.37;;
9761;SDS011;4920;49.594;11.022;2023-04-03T05:28:33;5.97;;;3.50;;
9761;SDS011;4920;49.594;11.022;2023-04-03T05:31:03;6.37;;;3.60;;
9761;SDS011;4920;49.594;11.022;2023-04-03T05:33:37;8.27;;;3.57;;
9761;SDS011;4920;49.594;11.022;2023-04-03T05:36:08;7.83;;;3.50;;
9761;SDS011;4920;49.594;11.022;2023-04-03T05:38:43;6.00;;;3.30;;
9761;SDS011;4920;49.594;11.022;2023-04-03T05:41:13;6.00;;;3.50;;
9761;SDS011;4920;49.594;11.022;2023-04-03T05:43:45;7.30;;;3.77;;
9761;SDS011;4920;49.594;11.022;2023-04-03T05:46:14;6.57;;;3.43;;
9761;SDS011;4920;49.594;11.022;2023-04-03T05:48:51;5.47;;;3.23;;
9761;SDS011;4920;49.594;11.022;2023-04-03T05:51:24;4.83;;;3.20;;
9761;SDS011;4920;49.594;11.022;2023-04-03T05:54:02;7.53;;;3.20;;
9761;SDS011;4920;49.594;11.022;2023-04-03T05:56:35;6.33;;;3.20;;
9761;SDS011;4920;49.594;11.022;2023-04-03T05:59:04;5.20;;;2.90;;
9761;SDS011;4920;49.594;11.022;2023-04-03T06:01:34;5.33;;;2.77;;
9761;SDS011;4920;49.594;11.022;2023-04-03T06:04:11;7.50;;;3.33;;
9761;SDS011;4920;49.594;11.022;2023-04-03T06:06:44;5.00;;;2.77;;
9761;SDS011;4920;49.594;11.022;2023-04-03T06:09:15;3.67;;;2.80;;
9761;SDS011;4920;49.594;11.022;2023-04-03T06:11:45;4.80;;;3.00;;
9761;SDS011;4920;49.594;11.022;2023-04-03T06:14:15;4.57;;;2.83;;
9761;SDS011;4920;49.594;11.022;2023-04-03T06:16:44;5.00;;;2.90;;
9761;SDS011;4920;49.594;11.022;2023-04-03T06:19:13;5.57;;;2.97;;
9761;SDS011;4920;49.594;11.022;2023-04-03T06:21:46;6.10;;;3.03;;
9761;SDS011;4920;49.594;11.022;2023-04-03T06:24:16;6.73;;;3.13;;
9761;SDS011;4920;49.594;11.022;2023-04-03T06:26:46;7.77;;;3.33;;
9761;SDS011;4920;49.594;11.022;2023-04-03T06:29:18;6.07;;;2.90;;
9761;SDS011;4920;49.594;11.022;2023-04-03T06:31:47;6.83;;;2.90;;
9761;SDS011;4920;49.594;11.022;2023-04-03T06:34:16;5.13;;;2.90;;
9761;SDS011;4920;49.594;11.022;2023-04-03T06:36:45;5.77;;;3.10;;
9761;SDS011;4920;49.594;11.022;2023-04-03T06:39:17;6.77;;;3.30;;
9761;SDS011;4920;49.594;11.022;2023-04-03T06:41:48;5.33;;;3.03;;
9761;SDS011;4920;49.594;11.022;2023-04-03T06:44:26;6.10;;;3.40;;
9761;SDS011;4920;49.594;11.022;2023-04-03T06:47:08;5.83;;;3.30;;
9761;SDS011;4920;49.594;11.022;2023-04-03T06:49:39;4.50;;;3.10;;
9761;SDS011;4920;49.594;11.022;2023-04-03T06:52:08;5.27;;;3.27;;
9761;SDS011;4920;49.594;11.022;2023-04-03T06:54:40;6.20;;;3.40;;
9761;SDS011;4920;49.594;11.022;2023-04-03T06:57:09;6.17;;;3.23;;
9761;SDS011;4920;49.594;11.022;2023-04-03T06:59:38;5.47;;;2.93;;
9761;SDS011;4920;49.594;11.022;2023-04-03T07:02:08;5.97;;;3.47;;
9761;SDS011;4920;49.594;11.022;2023-04-03T07:04:39;6.23;;;3.20;;
9761;SDS011;4920;49.594;11.022;2023-04-03T07:07:08;4.33;;;3.10;;
9761;SDS011;4920;49.594;11.022;2023-04-03T07:09:37;5.63;;;3.13;;
9761;SDS011;4920;49.594;11.022;2023-04-03T07:12:07;7.07;;;3.33;;
9761;SDS011;4920;49.594;11.022;2023-04-03T07:14:36;5.20;;;3.50;;
9761;SDS011;4920;49.594;11.022;2023-04-03T07:17:04;7.43;;;3.47;;
9761;SDS011;4920;49.594;11.022;2023-04-03T07:19:35;8.30;;;3.67;;
9761;SDS011;4920;49.594;11.022;2023-04-03T07:22:04;6.47;;;3.40;;
9761;SDS011;4920;49.594;11.022;2023-04-03T07:24:33;4.97;;;3.53;;
9761;SDS011;4920;49.594;11.022;2023-04-03T07:27:02;5.47;;;3.03;;
9761;SDS011;4920;49.594;11.022;2023-04-03T07:29:33;4.63;;;3.20;;
9761;SDS011;4920;49.594;11.022;2023-04-03T07:32:02;6.63;;;3.50;;
9761;SDS011;4920;49.594;11.022;2023-04-03T07:34:31;3.67;;;2.83;;
9761;SDS011;4920;49.594;11.022;2023-04-03T07:37:00;5.30;;;3.23;;
9761;SDS011;4920;49.594;11.022;2023-04-03T07:39:29;4.50;;;2.87;;
9761;SDS011;4920;49.594;11.022;2023-04-03T07:41:58;5.63;;;3.10;;
9761;SDS011;4920;49.594;11.022;2023-04-03T07:44:27;9.30;;;3.63;;
9761;SDS011;4920;49.594;11.022;2023-04-03T07:46:58;5.77;;;3.20;;
9761;SDS011;4920;49.594;11.022;2023-04-03T07:49:27;6.27;;;3.40;;
9761;SDS011;4920;49.594;11.022;2023-04-03T07:51:56;4.27;;;3.30;;
9761;SDS011;4920;49.594;11.022;2023-04-03T07:54:25;4.97;;;2.93;;
9761;SDS011;4920;49.594;11.022;2023-04-03T07:56:53;5.80;;;3.40;;
9761;SDS011;4920;49.594;11.022;2023-04-03T07:59:23;6.77;;;3.50;;
9761;SDS011;4920;49.594;11.022;2023-04-03T08:01:52;6.00;;;3.13;;
9761;SDS011;4920;49.594;11.022;2023-04-03T08:04:22;6.83;;;3.73;;
9761;SDS011;4920;49.594;11.022;2023-04-03T08:06:51;8.57;;;3.20;;
9761;SDS011;4920;49.594;11.022;2023-04-03T08:09:20;4.47;;;2.90;;
9761;SDS011;4920;49.594;11.022;2023-04-03T08:11:49;6.13;;;3.33;;
9761;SDS011;4920;49.594;11.022;2023-04-03T08:14:20;7.00;;;3.67;;
9761;SDS011;4920;49.594;11.022;2023-04-03T08:16:49;7.47;;;3.10;;
9761;SDS011;4920;49.594;11.022;2023-04-03T08:19:17;4.63;;;3.00;;
9761;SDS011;4920;49.594;11.022;2023-04-03T08:21:54;5.97;;;3.40;;
9761;SDS011;4920;49.594;11.022;2023-04-03T08:24:23;7.70;;;3.33;;
9761;SDS011;4920;49.594;11.022;2023-04-03T08:26:52;4.97;;;3.33;;
9761;SDS011;4920;49.594;11.022;2023-04-03T08:29:21;4.57;;;3.00;;
9761;SDS011;4920;49.594;11.022;2023-04-03T08:31:49;4.20;;;2.93;;
9761;SDS011;4920;49.594;11.022;2023-04-03T08:34:18;5.20;;;3.00;;
9761;SDS011;4920;49.594;11.022;2023-04-03T08:36:47;4.90;;;2.50;;
9761;SDS011;4920;49.594;11.022;2023-04-03T08:39:17;6.57;;;2.93;;
9761;SDS011;4920;49.594;11.022;2023-04-03T08:41:46;4.27;;;3.00;;
9761;SDS011;4920;49.594;11.022;2023-04-03T08:44:17;4.40;;;3.03;;
9761;SDS011;4920;49.594;11.022;2023-04-03T08:46:58;5.83;;;2.80;;
9761;SDS011;4920;49.594;11.022;2023-04-03T08:49:39;4.60;;;2.70;;
9761;SDS011;4920;49.594;11.022;2023-04-03T08:55:37;6.33;;;3.00;;
9761;SDS011;4920;49.594;11.022;2023-04-03T08:58:10;4.73;;;2.40;;
9761;SDS011;4920;49.594;11.022;2023-04-03T09:00:44;3.10;;;2.43;;
9761;SDS011;4920;49.594;11.022;2023-04-03T09:03:16;4.03;;;2.43;;
9761;SDS011;4920;49.594;11.022;2023-04-03T09:05:48;3.83;;;2.60;;
9761;SDS011;4920;49.594;11.022;2023-04-03T09:08:22;4.70;;;2.80;;
9761;SDS011;4920;49.594;11.022;2023-04-03T09:11:03;4.93;;;2.87;;
9761;SDS011;4920;49.594;11.022;2023-04-03T09:13:41;5.13;;;2.60;;
9761;SDS011;4920;49.594;11.022;2023-04-03T09:16:21;2.90;;;2.50;;
9761;SDS011;4920;49.594;11.022;2023-04-03T09:19:05;5.13;;;2.80;;
9761;SDS011;4920;49.594;11.022;2023-04-03T09:21:43;5.17;;;2.67;;
9761;SDS011;4920;49.594;11.022;2023-04-03T09:24:12;5.57;;;2.57;;
9761;SDS011;4920;49.594;11.022;2023-04-03T09:26:45;4.77;;;2.50;;
9761;SDS011;4920;49.594;11.022;2023-04-03T09:29:26;4.50;;;2.40;;
9761;SDS011;4920;49.594;11.022;2023-04-03T09:31:56;3.83;;;2.33;;
9761;SDS011;4920;49.594;11.022;2023-04-03T09:34:28;3.93;;;2.50;;
9761;SDS011;4920;49.594;11.022;2023-04-03T09:37:01;5.23;;;2.30;;
9761;SDS011;4920;49.594;11.022;2023-04-03T09:39:43;4.03;;;2.50;;
9761;SDS011;4920;49.594;11.022;2023-04-03T09:42:20;4.03;;;2.30;;
9761;SDS011;4920;49.594;11.022;2023-04-03T09:44:53;3.77;;;2.33;;
9761;SDS011;4920;49.594;11.022;2023-04-03T09:47:24;3.40;;;2.13;;
9761;SDS011;4920;49.594;11.022;2023-04-03T09:50:09;2.87;;;2.13;;
9761;SDS011;4920;49.594;11.022;2023-04-03T09:52:49;4.67;;;2.53;;
9761;SDS011;4920;49.594;11.022;2023-04-03T09:55:20;3.60;;;2.43;;
9761;SDS011;4920;49.594;11.022;2023-04-03T09:57:55;4.80;;;2.47;;
9761;SDS011;4920;49.594;11.022;2023-04-03T10:00:27;4.10;;;2.60;;
9761;SDS011;4920;49.594;11.022;2023-04-03T10:03:05;3.90;;;2.23;;
9761;SDS011;4920;49.594;11.022;2023-04-03T10:05:51;5.17;;;2.43;;
9761;SDS011;4920;49.594;11.022;2023-04-03T10:08:24;4.10;;;2.43;;
9761;SDS011;4920;49.594;11.022;2023-04-03T10:11:07;3.03;;;2.37;;
9761;SDS011;4920;49.594;11.022;2023-04-03T10:13:53;4.47;;;2.20;;
9761;SDS011;4920;49.594;11.022;2023-04-03T10:16:25;3.80;;;2.10;;
9761;SDS011;4920;49.594;11.022;2023-04-03T10:19:11;3.00;;;2.40;;
9761;SDS011;4920;49.594;11.022;2023-04-03T10:21:53;4.53;;;2.60;;
9761;SDS011;4920;49.594;11.022;2023-04-03T10:24:29;3.87;;;2.40;;
9761;SDS011;4920;49.594;11.022;2023-04-03T10:27:05;4.00;;;2.80;;
9761;SDS011;4920;49.594;11.022;2023-04-03T10:29:42;3.57;;;2.57;;
9761;SDS011;4920;49.594;11.022;2023-04-03T10:32:27;3.30;;;2.40;;
9761;SDS011;4920;49.594;11.022;2023-04-03T10:35:08;3.73;;;2.40;;
9761;SDS011;4920;49.594;11.022;2023-04-03T10:37:48;5.10;;;2.70;;
9761;SDS011;4920;49.594;11.022;2023-04-03T10:40:28;4.80;;;2.70;;
9761;SDS011;4920;49.594;11.022;2023-04-03T10:43:04;5.33;;;2.60;;
9761;SDS011;4920;49.594;11.022;2023-04-03T10:45:51;4.00;;;2.30;;
9761;SDS011;4920;49.594;11.022;2023-04-03T10:48:27;2.97;;;2.43;;
9761;SDS011;4920;49.594;11.022;2023-04-03T10:51:07;3.57;;;2.37;;
9761;SDS011;4920;49.594;11.022;2023-04-03T10:53:51;3.80;;;2.40;;
9761;SDS011;4920;49.594;11.022;2023-04-03T10:56:27;4.33;;;2.30;;
9761;SDS011;4920;49.594;11.022;2023-04-03T10:59:01;3.90;;;2.50;;
9761;SDS011;4920;49.594;11.022;2023-04-03T11:01:42;5.30;;;2.90;;
9761;SDS011;4920;49.594;11.022;2023-04-03T11:04:14;4.30;;;2.70;;
9761;SDS011;4920;49.594;11.022;2023-04-03T11:06:44;3.57;;;2.47;;
9761;SDS011;4920;49.594;11.022;2023-04-03T11:09:19;4.13;;;2.60;;
9761;SDS011;4920;49.594;11.022;2023-04-03T11:11:53;4.37;;;2.80;;
9761;SDS011;4920;49.594;11.022;2023-04-03T11:14:29;3.73;;;2.53;;
9761;SDS011;4920;49.594;11.022;2023-04-03T11:17:04;3.47;;;2.40;;
9761;SDS011;4920;49.594;11.022;2023-04-03T11:19:41;6.87;;;2.47;;
9761;SDS011;4920;49.594;11.022;2023-04-03T11:22:15;3.17;;;2.00;;
9761;SDS011;4920;49.594;11.022;2023-04-03T11:24:54;3.33;;;2.33;;
9761;SDS011;4920;49.594;11.022;2023-04-03T11:27:27;3.63;;;2.40;;
9761;SDS011;4920;49.594;11.022;2023-04-03T11:30:01;3.80;;;2.30;;
9761;SDS011;4920;49.594;11.022;2023-04-03T11:32:43;4.30;;;2.33;;
9761;SDS011;4920;49.594;11.022;2023-04-03T11:35:36;3.17;;;2.10;;
9761;SDS011;4920;49.594;11.022;2023-04-03T11:38:10;5.70;;;2.17;;
9761;SDS011;4920;49.594;11.022;2023-04-03T11:40:46;4.23;;;2.03;;
9761;SDS011;4920;49.594;11.022;2023-04-03T11:43:20;6.53;;;2.53;;
9761;SDS011;4920;49.594;11.022;2023-04-03T11:45:53;3.13;;;2.20;;
9761;SDS011;4920;49.594;11.022;2023-04-03T11:51:38;3.63;;;2.20;;
9761;SDS011;4920;49.594;11.022;2023-04-03T12:03:32;4.47;;;2.20;;
9761;SDS011;4920;49.594;11.022;2023-04-03T12:09:27;4.70;;;2.43;;
9761;SDS011;4920;49.594;11.022;2023-04-03T12:11:59;3.10;;;2.30;;
9761;SDS011;4920;49.594;11.022;2023-04-03T12:14:48;4.30;;;2.43;;
9761;SDS011;4920;49.594;11.022;2023-04-03T12:17:20;3.23;;;2.30;;
9761;SDS011;4920;49.594;11.022;2023-04-03T12:19:52;2.87;;;2.17;;
9761;SDS011;4920;49.594;11.022;2023-04-03T12:22:21;2.60;;;2.23;;
9761;SDS011;4920;49.594;11.022;2023-04-03T12:24:52;3.37;;;2.10;;
9761;SDS011;4920;49.594;11.022;2023-04-03T12:27:23;8.00;;;2.50;;
9761;SDS011;4920;49.594;11.022;2023-04-03T12:29:59;2.77;;;2.00;;
9761;SDS011;4920;49.594;11.022;2023-04-03T12:32:48;3.07;;;2.00;;
9761;SDS011;4920;49.594;11.022;2023-04-03T12:35:40;2.83;;;2.20;;
9761;SDS011;4920;49.594;11.022;2023-04-03T12:38:31;4.17;;;2.03;;
9761;SDS011;4920;49.594;11.022;2023-04-03T12:41:16;4.30;;;2.00;;
9761;SDS011;4920;49.594;11.022;2023-04-03T12:43:53;6.20;;;2.17;;
9761;SDS011;4920;49.594;11.022;2023-04-03T12:46:38;3.30;;;2.10;;
9761;SDS011;4920;49.594;11.022;2023-04-03T12:52:02;2.43;;;1.87;;
9761;SDS011;4920;49.594;11.022;2023-04-03T12:54:35;3.57;;;2.20;;
9761;SDS011;4920;49.594;11.022;2023-04-03T12:57:11;3.00;;;2.10;;
9761;SDS011;4920;49.594;11.022;2023-04-03T12:59:44;4.60;;;2.40;;
9761;SDS011;4920;49.594;11.022;2023-04-03T13:02:21;4.20;;;2.40;;
9761;SDS011;4920;49.594;11.022;2023-04-03T13:04:52;4.13;;;2.30;;
9761;SDS011;4920;49.594;11.022;2023-04-03T13:07:25;15.87;;;3.83;;
9761;SDS011;4920;49.594;11.022;2023-04-03T13:09:59;3.03;;;2.23;;
9761;SDS011;4920;49.594;11.022;2023-04-03T13:12:32;3.77;;;2.40;;
9761;SDS011;4920;49.594;11.022;2023-04-03T13:15:02;3.90;;;2.20;;
9761;SDS011;4920;49.594;11.022;2023-04-03T13:17:41;3.57;;;2.30;;
9761;SDS011;4920;49.594;11.022;2023-04-03T13:20:18;3.20;;;2.10;;
9761;SDS011;4920;49.594;11.022;2023-04-03T13:22:51;2.97;;;2.30;;
9761;SDS011;4920;49.594;11.022;2023-04-03T13:25:25;3.77;;;2.20;;
9761;SDS011;4920;49.594;11.022;2023-04-03T13:27:59;3.57;;;2.10;;
9761;SDS011;4920;49.594;11.022;2023-04-03T13:30:40;4.63;;;2.10;;
9761;SDS011;4920;49.594;11.022;2023-04-03T13:33:22;3.10;;;2.00;;
9761;SDS011;4920;49.594;11.022;2023-04-03T13:35:56;3.97;;;2.23;;
9761;SDS011;4920;49.594;11.022;2023-04-03T13:38:29;3.23;;;2.20;;
9761;SDS011;4920;49.594;11.022;2023-04-03T13:41:01;5.43;;;2.50;;
9761;SDS011;4920;49.594;11.022;2023-04-03T13:43:34;3.50;;;2.30;;
9761;SDS011;4920;49.594;11.022;2023-04-03T13:46:20;3.83;;;2.23;;
9761;SDS011;4920;49.594;11.022;2023-04-03T13:48:53;4.03;;;2.10;;
9761;SDS011;4920;49.594;11.022;2023-04-03T13:51:23;3.50;;;2.00;;
9761;SDS011;4920;49.594;11.022;2023-04-03T13:53:55;3.07;;;2.30;;
9761;SDS011;4920;49.594;11.022;2023-04-03T13:56:29;3.40;;;2.20;;
9761;SDS011;4920;49.594;11.022;2023-04-03T13:59:03;4.07;;;2.00;;
9761;SDS011;4920;49.594;11.022;2023-04-03T14:01:38;3.57;;;2.00;;
9761;SDS011;4920;49.594;11.022;2023-04-03T14:04:12;3.70;;;2.10;;
9761;SDS011;4920;49.594;11.022;2023-04-03T14:06:43;3.17;;;2.00;;
9761;SDS011;4920;49.594;11.022;2023-04-03T14:09:13;2.50;;;1.93;;
9761;SDS011;4920;49.594;11.022;2023-04-03T14:11:43;4.37;;;2.20;;
9761;SDS011;4920;49.594;11.022;2023-04-03T14:14:15;2.50;;;2.17;;
9761;SDS011;4920;49.594;11.022;2023-04-03T14:16:48;3.10;;;1.90;;
9761;SDS011;4920;49.594;11.022;2023-04-03T14:19:21;2.80;;;2.00;;
9761;SDS011;4920;49.594;11.022;2023-04-03T14:21:51;4.40;;;2.20;;
9761;SDS011;4920;49.594;11.022;2023-04-03T14:24:22;2.23;;;1.70;;
9761;SDS011;4920;49.594;11.022;2023-04-03T14:26:52;2.77;;;1.90;;
9761;SDS011;4920;49.594;11.022;2023-04-03T14:29:23;5.40;;;2.10;;
9761;SDS011;4920;49.594;11.022;2023-04-03T14:31:52;3.57;;;2.30;;
9761;SDS011;4920;49.594;11.022;2023-04-03T14:34:39;2.33;;;1.80;;
9761;SDS011;4920;49.594;11.022;2023-04-03T14:37:11;3.23;;;2.10;;
9761;SDS011;4920;49.594;11.022;2023-04-03T14:39:44;4.80;;;2.40;;
9761;SDS011;4920;49.594;11.022;2023-04-03T14:42:14;2.87;;;1.97;;
9761;SDS011;4920;49.594;11.022;2023-04-03T14:44:46;4.30;;;2.20;;
9761;SDS011;4920;49.594;11.022;2023-04-03T14:47:15;3.73;;;2.00;;
9761;SDS011;4920;49.594;11.022;2023-04-03T14:49:57;3.07;;;1.90;;
9761;SDS011;4920;49.594;11.022;2023-04-03T14:52:27;2.30;;;1.97;;
9761;SDS011;4920;49.594;11.022;2023-04-03T14:54:59;3.13;;;2.10;;
9761;SDS011;4920;49.594;11.022;2023-04-03T14:57:29;3.80;;;1.90;;
9761;SDS011;4920;49.594;11.022;2023-04-03T15:00:00;3.13;;;2.07;;
9761;SDS011;4920;49.594;11.022;2023-04-03T15:02:31;2.93;;;1.90;;
9761;SDS011;4920;49.594;11.022;2023-04-03T15:05:02;3.50;;;2.00;;
9761;SDS011;4920;49.594;11.022;2023-04-03T15:07:32;2.93;;;1.83;;
9761;SDS011;4920;49.594;11.022;2023-04-03T15:10:06;3.23;;;1.90;;
9761;SDS011;4920;49.594;11.022;2023-04-03T15:12:43;3.20;;;2.10;;
9761;SDS011;4920;49.594;11.022;2023-04-03T15:15:14;3.50;;;1.73;;
9761;SDS011;4920;49.594;11.022;2023-04-03T15:17:44;3.87;;;2.00;;
9761;SDS011;4920;49.594;11.022;2023-04-03T15:20:15;4.57;;;1.90;;
9761;SDS011;4920;49.594;11.022;2023-04-03T15:22:46;3.03;;;1.97;;
9761;SDS011;4920;49.594;11.022;2023-04-03T15:25:15;4.97;;;2.20;;
9761;SDS011;4920;49.594;11.022;2023-04-03T15:27:44;2.17;;;1.90;;
9761;SDS011;4920;49.594;11.022;2023-04-03T15:30:16;3.43;;;1.90;;
9761;SDS011;4920;49.594;11.022;2023-04-03T15:32:46;3.70;;;2.00;;
9761;SDS011;4920;49.594;11.022;2023-04-03T15:35:15;3.73;;;2.10;;
9761;SDS011;4920;49.594;11.022;2023-04-03T15:37:44;6.47;;;2.07;;
9761;SDS011;4920;49.594;11.022;2023-04-03T15:40:14;3.60;;;2.10;;
9761;SDS011;4920;49.594;11.022;2023-04-03T15:42:44;2.90;;;2.10;;
9761;SDS011;4920;49.594;11.022;2023-04-03T15:45:15;3.30;;;1.90;;
9761;SDS011;4920;49.594;11.022;2023-04-03T15:47:43;2.47;;;1.80;;
9761;SDS011;4920;49.594;11.022;2023-04-03T15:50:12;3.47;;;2.00;;
9761;SDS011;4920;49.594;11.022;2023-04-03T15:52:41;3.47;;;1.60;;
9761;SDS011;4920;49.594;11.022;2023-04-03T15:55:10;3.17;;;2.10;;
9761;SDS011;4920;49.594;11.022;2023-04-03T15:57:39;4.87;;;1.83;;
9761;SDS011;4920;49.594;11.022;2023-04-03T16:00:08;3.87;;;2.10;;
9761;SDS011;4920;49.594;11.022;2023-04-03T16:02:42;3.10;;;1.90;;